Time;durP1;ratioP1;P1;durP2;ratioP2;P2;SDS_P1;SDS_P2;PMS_P1;PMS_P2;Temp;Humidity;BMP_temperature;BMP_pressure;BME280_temperature;BME280_humidity;BME280_pressure;Samples;Min_cycle;Max_cycle;Signal;HPM_P1;HPM_P2
2022/05/15 00:05:32;;;;;;;4.38;1.50;;;15.10;91.00;;;;;;4953052;28;20061;-90
2022/05/15 00:08:01;;;;;;;5.63;1.60;;;15.20;91.40;;;;;;4953377;28;20543;-89
2022/05/15 00:10:27;;;;;;;2.80;1.30;;;15.10;91.70;;;;;;4953582;28;20030;-89
2022/05/15 00:12:56;;;;;;;3.83;1.48;;;15.10;92.00;;;;;;4948970;28;20801;-89
2022/05/15 00:15:22;;;;;;;2.35;1.00;;;15.10;91.80;;;;;;4960378;28;20118;-89
2022/05/15 00:17:48;;;;;;;6.50;1.50;;;15.00;91.70;;;;;;4943102;28;20031;-90
2022/05/15 00:20:16;;;;;;;2.83;0.90;;;15.40;92.00;;;;;;4955627;28;20035;-89
2022/05/15 00:22:42;;;;;;;3.08;0.75;;;15.00;92.30;;;;;;4958674;28;20479;-89
2022/05/15 00:25:08;;;;;;;2.95;1.20;;;15.20;92.10;;;;;;4952121;28;20090;-88
2022/05/15 00:27:37;;;;;;;3.08;1.00;;;15.00;92.10;;;;;;4948375;28;20039;-88
2022/05/15 00:30:06;;;;;;;2.60;1.13;;;15.00;92.20;;;;;;4956759;28;20491;-90
2022/05/15 00:32:34;;;;;;;3.92;1.13;;;14.90;92.40;;;;;;4949445;28;20113;-89
2022/05/15 00:35:00;;;;;;;3.53;1.27;;;14.90;92.70;;;;;;4956920;28;20040;-89
2022/05/15 00:37:32;;;;;;;3.00;1.00;;;14.80;92.80;;;;;;4947652;28;20086;-89
2022/05/15 00:40:00;;;;;;;2.72;1.00;;;14.90;93.00;;;;;;4959880;28;20035;-89
2022/05/15 00:42:29;;;;;;;2.05;0.80;;;14.80;93.00;;;;;;4942247;28;20095;-88
2022/05/15 00:44:55;;;;;;;2.22;1.02;;;14.80;93.10;;;;;;4958330;28;20035;-89
2022/05/15 00:47:24;;;;;;;3.13;0.95;;;14.80;93.20;;;;;;4949892;28;20031;-89
2022/05/15 00:49:54;;;;;;;3.05;1.17;;;14.70;93.30;;;;;;4953178;28;20039;-88
2022/05/15 00:52:26;;;;;;;4.53;1.20;;;14.70;93.80;;;;;;4948185;28;20603;-88
2022/05/15 00:54:57;;;;;;;2.97;1.08;;;14.60;94.20;;;;;;4949665;28;20435;-88
2022/05/15 00:57:36;;;;;;;2.42;0.98;;;14.70;94.30;;;;;;4951812;28;20051;-88
2022/05/15 01:00:13;;;;;;;3.60;1.17;;;14.40;94.10;;;;;;4951681;28;20046;-89
2022/05/15 01:02:43;;;;;;;2.60;0.95;;;14.50;94.20;;;;;;4938583;28;20077;-89
2022/05/15 01:05:14;;;;;;;3.33;0.80;;;14.50;94.40;;;;;;4948008;28;20134;-89
2022/05/15 01:07:45;;;;;;;2.88;1.02;;;14.40;94.30;;;;;;4941058;28;20041;-88
2022/05/15 01:10:14;;;;;;;3.58;1.40;;;14.40;94.60;;;;;;4954643;28;20035;-88
2022/05/15 01:12:41;;;;;;;2.03;0.90;;;14.50;94.90;;;;;;4939811;28;20456;-89
2022/05/15 01:15:16;;;;;;;2.28;0.80;;;14.30;95.10;;;;;;5001199;23;20472;-91
2022/05/15 01:17:42;;;;;;;1.92;0.80;;;14.30;94.80;;;;;;5004760;28;20129;-89
2022/05/15 01:20:13;;;;;;;2.47;1.15;;;14.60;95.00;;;;;;5001633;28;20026;-89
2022/05/15 01:22:39;;;;;;;2.60;0.90;;;14.30;95.00;;;;;;4997302;28;20525;-89
2022/05/15 01:25:14;;;;;;;2.95;0.93;;;14.50;95.30;;;;;;4993487;28;20030;-90
2022/05/15 01:27:44;;;;;;;2.80;1.20;;;14.20;95.10;;;;;;4979389;28;20026;-90
2022/05/15 01:30:10;;;;;;;2.03;0.95;;;14.20;95.10;;;;;;4972651;28;20478;-89
2022/05/15 01:32:36;;;;;;;2.70;1.20;;;14.20;95.30;;;;;;4974065;28;20057;-89
2022/05/15 01:35:01;;;;;;;3.90;1.33;;;14.20;95.60;;;;;;4973468;28;20065;-89
2022/05/15 01:37:27;;;;;;;2.72;1.02;;;14.10;96.00;;;;;;4992800;28;20030;-89
2022/05/15 01:39:52;;;;;;;3.42;1.10;;;14.10;96.30;;;;;;4975477;28;20018;-90
2022/05/15 01:42:18;;;;;;;2.78;1.00;;;13.90;96.30;;;;;;4972845;28;20159;-89
2022/05/15 01:44:43;;;;;;;1.75;0.80;;;14.00;96.60;;;;;;4978188;28;20081;-90
2022/05/15 01:47:09;;;;;;;1.48;0.80;;;14.00;97.00;;;;;;4970486;28;20490;-89
2022/05/15 01:49:37;;;;;;;2.10;0.88;;;14.00;97.00;;;;;;4979995;28;20455;-89
2022/05/15 01:52:03;;;;;;;2.80;1.00;;;14.20;97.30;;;;;;4976963;28;20029;-89
2022/05/15 01:54:29;;;;;;;2.95;1.38;;;13.90;97.50;;;;;;4970320;28;20086;-89
2022/05/15 01:56:54;;;;;;;2.17;1.00;;;14.00;97.50;;;;;;4975083;28;20029;-89
2022/05/15 01:59:20;;;;;;;4.22;1.13;;;14.20;97.90;;;;;;4978297;28;20113;-89
2022/05/15 02:01:46;;;;;;;3.45;0.80;;;13.90;97.80;;;;;;4971582;28;20061;-89
2022/05/15 02:04:11;;;;;;;3.53;1.00;;;14.20;97.90;;;;;;4989121;28;20038;-89
2022/05/15 02:06:37;;;;;;;2.33;1.00;;;13.90;97.90;;;;;;4973122;28;20042;-90
2022/05/15 02:09:03;;;;;;;2.38;1.00;;;14.10;98.10;;;;;;4972342;28;20535;-89
2022/05/15 02:11:29;;;;;;;2.05;0.80;;;13.90;98.00;;;;;;4969433;28;20510;-89
2022/05/15 02:13:55;;;;;;;2.50;0.95;;;13.80;98.40;;;;;;4977974;28;20058;-89
2022/05/15 02:16:20;;;;;;;2.08;1.00;;;13.80;98.60;;;;;;4977961;28;20083;-89
2022/05/15 02:18:46;;;;;;;3.13;1.00;;;13.70;98.90;;;;;;4993835;28;20038;-89
2022/05/15 02:21:12;;;;;;;2.42;1.30;;;13.80;98.90;;;;;;4980649;28;20026;-89
2022/05/15 02:23:37;;;;;;;4.72;1.48;;;13.70;99.10;;;;;;4972774;28;20513;-89
2022/05/15 02:26:03;;;;;;;4.50;1.20;;;13.80;99.60;;;;;;4983961;28;20481;-90
2022/05/15 02:28:29;;;;;;;2.90;1.05;;;13.60;99.60;;;;;;4977168;28;20037;-90
2022/05/15 02:30:54;;;;;;;3.33;1.08;;;13.80;99.90;;;;;;4975834;28;20049;-89
2022/05/15 02:33:20;;;;;;;2.42;1.00;;;13.60;99.90;;;;;;4973724;28;20482;-89
2022/05/15 02:35:46;;;;;;;1.33;0.68;;;13.70;99.90;;;;;;4964922;28;20057;-89
2022/05/15 02:38:11;;;;;;;1.65;0.90;;;13.70;99.90;;;;;;4968957;28;20090;-90
2022/05/15 02:40:37;;;;;;;2.97;1.15;;;13.70;99.90;;;;;;4971202;28;20026;-89
2022/05/15 02:43:03;;;;;;;3.08;1.10;;;13.60;99.90;;;;;;4962243;28;20224;-89
2022/05/15 02:45:28;;;;;;;5.22;1.15;;;13.80;99.90;;;;;;4981667;28;20045;-89
2022/05/15 02:47:54;;;;;;;3.50;0.70;;;13.80;99.90;;;;;;4978085;28;20065;-89
2022/05/15 02:53:06;;;;;;;1.50;0.77;;;13.50;99.90;;;;;;4987814;28;20057;-89
2022/05/15 02:55:33;;;;;;;1.45;0.75;;;13.50;99.90;;;;;;4983315;28;20540;-89
2022/05/15 02:57:59;;;;;;;1.80;0.70;;;13.40;99.90;;;;;;4986800;28;20487;-89
2022/05/15 03:00:27;;;;;;;1.45;0.65;;;13.50;99.90;;;;;;4983799;28;20026;-89
2022/05/15 03:02:53;;;;;;;2.63;0.70;;;13.40;99.90;;;;;;4968775;28;20050;-89
2022/05/15 03:05:20;;;;;;;2.42;1.08;;;13.40;99.90;;;;;;4972089;28;20479;-89
2022/05/15 03:07:47;;;;;;;1.65;0.70;;;13.30;99.90;;;;;;4980002;28;20064;-89
2022/05/15 03:10:14;;;;;;;2.30;0.82;;;13.30;99.90;;;;;;4975384;28;20182;-89
2022/05/15 03:12:40;;;;;;;4.25;1.00;;;13.40;99.90;;;;;;4986062;28;20031;-89
2022/05/15 03:15:07;;;;;;;4.43;0.90;;;13.30;99.90;;;;;;4978685;28;20173;-89
2022/05/15 03:17:34;;;;;;;3.88;1.00;;;13.30;99.90;;;;;;4983065;28;20026;-88
2022/05/15 03:20:00;;;;;;;2.92;0.95;;;13.30;99.90;;;;;;4981492;28;20027;-89
2022/05/15 03:22:26;;;;;;;2.42;1.02;;;13.50;99.90;;;;;;4974013;28;20038;-90
2022/05/15 03:24:52;;;;;;;2.30;0.93;;;13.30;99.90;;;;;;4985810;28;20114;-89
2022/05/15 03:27:17;;;;;;;2.67;1.10;;;13.60;99.90;;;;;;4984132;28;20083;-89
2022/05/15 03:29:43;;;;;;;2.83;0.90;;;13.30;99.90;;;;;;4976713;28;20034;-90
2022/05/15 03:32:09;;;;;;;2.10;0.98;;;13.30;99.90;;;;;;4967494;28;20030;-89
2022/05/15 03:34:34;;;;;;;3.63;1.20;;;13.20;99.90;;;;;;4982851;28;20026;-88
2022/05/15 03:37:00;;;;;;;2.15;0.90;;;13.60;99.90;;;;;;4987914;28;20160;-89
2022/05/15 03:39:26;;;;;;;2.55;1.00;;;13.30;99.90;;;;;;4978274;28;20041;-88
2022/05/15 03:41:52;;;;;;;2.42;0.80;;;13.20;99.90;;;;;;4964698;28;20031;-89
2022/05/15 03:44:18;;;;;;;3.33;1.00;;;13.20;99.90;;;;;;4969434;28;20517;-89
2022/05/15 03:46:44;;;;;;;2.35;1.00;;;13.20;99.90;;;;;;4979288;28;20085;-89
2022/05/15 03:49:13;;;;;;;2.17;0.90;;;13.20;99.90;;;;;;4977146;28;20026;-89
2022/05/15 03:51:39;;;;;;;3.20;1.10;;;13.40;99.90;;;;;;4975409;28;20128;-90
2022/05/15 03:54:05;;;;;;;3.42;0.85;;;13.10;99.90;;;;;;4988125;28;20037;-89
2022/05/15 03:56:52;;;;;;;1.90;0.82;;;13.10;99.90;;;;;;4967953;28;20081;-89
2022/05/15 03:59:39;;;;;;;2.28;0.80;;;13.10;99.90;;;;;;4975428;28;20026;-89
2022/05/15 04:02:06;;;;;;;3.38;1.00;;;13.30;99.90;;;;;;4973929;28;20022;-88
2022/05/15 04:04:33;;;;;;;3.97;1.27;;;13.00;99.90;;;;;;4976560;28;20499;-87
2022/05/15 04:07:00;;;;;;;2.83;0.90;;;13.30;99.90;;;;;;4973740;28;20093;-88
2022/05/15 04:09:26;;;;;;;4.07;1.13;;;13.00;99.90;;;;;;4970481;28;20043;-87
2022/05/15 04:11:52;;;;;;;1.70;0.75;;;13.00;99.90;;;;;;4989347;28;20241;-88
2022/05/15 04:14:18;;;;;;;2.00;0.70;;;13.00;99.90;;;;;;4972596;28;20483;-88
2022/05/15 04:16:43;;;;;;;4.50;1.33;;;13.00;99.90;;;;;;4979028;28;20120;-89
2022/05/15 04:19:09;;;;;;;2.85;1.00;;;13.10;99.90;;;;;;4974985;28;20060;-88
2022/05/15 04:21:40;;;;;;;1.42;0.65;;;13.10;99.90;;;;;;4973445;28;20463;-88
2022/05/15 04:24:08;;;;;;;3.28;0.80;;;13.20;99.90;;;;;;4974852;28;20038;-88
2022/05/15 04:26:35;;;;;;;1.90;0.80;;;13.20;99.90;;;;;;4975392;28;20092;-88
2022/05/15 04:29:01;;;;;;;1.98;0.70;;;13.30;99.90;;;;;;4963022;28;20035;-88
2022/05/15 04:31:28;;;;;;;3.22;1.10;;;13.30;99.90;;;;;;4991879;28;20025;-88
2022/05/15 04:33:53;;;;;;;2.30;0.68;;;13.40;99.90;;;;;;4973390;28;20490;-88
2022/05/15 04:36:19;;;;;;;2.63;0.93;;;13.40;99.90;;;;;;4982886;28;20099;-89
2022/05/15 04:38:44;;;;;;;1.70;0.70;;;13.60;99.90;;;;;;4969944;28;20060;-88
2022/05/15 04:41:10;;;;;;;2.05;0.90;;;13.60;99.90;;;;;;4985270;28;20022;-88
2022/05/15 04:43:36;;;;;;;1.35;0.57;;;13.60;99.90;;;;;;4972915;28;20494;-89
2022/05/15 04:46:07;;;;;;;1.50;0.90;;;13.60;99.90;;;;;;4997941;28;20030;-88
2022/05/15 04:48:36;;;;;;;1.83;0.70;;;13.70;99.90;;;;;;4976082;28;20038;-88
2022/05/15 04:51:02;;;;;;;4.03;0.90;;;13.80;99.90;;;;;;4968669;28;20109;-88
2022/05/15 04:53:27;;;;;;;1.85;0.73;;;13.90;99.90;;;;;;4984300;28;20038;-87
2022/05/15 04:55:54;;;;;;;1.83;0.60;;;13.90;99.90;;;;;;4969513;28;20038;-88
2022/05/15 04:58:20;;;;;;;1.33;0.77;;;14.00;99.90;;;;;;4973643;28;20038;-88
2022/05/15 05:00:46;;;;;;;2.70;0.93;;;14.10;99.90;;;;;;4983589;28;20061;-90
2022/05/15 05:03:11;;;;;;;3.10;0.88;;;14.10;99.90;;;;;;4992222;28;20030;-88
2022/05/15 05:05:37;;;;;;;2.60;1.00;;;14.20;99.90;;;;;;4980764;28;20033;-89
2022/05/15 05:08:05;;;;;;;2.15;0.93;;;14.30;99.90;;;;;;4971163;28;20092;-89
2022/05/15 05:10:30;;;;;;;1.75;0.85;;;14.40;99.90;;;;;;4964836;28;20118;-88
2022/05/15 05:12:56;;;;;;;2.83;0.70;;;14.60;99.90;;;;;;4985786;28;20593;-88
2022/05/15 05:15:21;;;;;;;1.98;0.55;;;14.70;99.90;;;;;;4991986;28;20035;-88
2022/05/15 05:17:47;;;;;;;2.20;0.65;;;14.60;99.90;;;;;;4973092;28;20038;-89
2022/05/15 05:20:13;;;;;;;3.53;0.60;;;14.70;99.90;;;;;;4962921;28;20037;-89
2022/05/15 05:22:39;;;;;;;2.67;0.68;;;14.90;99.90;;;;;;4969786;28;20030;-88
2022/05/15 05:25:07;;;;;;;2.72;1.02;;;14.70;99.90;;;;;;4988745;28;20022;-89
2022/05/15 05:27:33;;;;;;;3.47;0.90;;;14.80;99.90;;;;;;4974196;28;20121;-89
2022/05/15 05:29:58;;;;;;;2.45;0.85;;;15.10;99.90;;;;;;4972013;28;20502;-89
2022/05/15 05:32:24;;;;;;;2.55;0.55;;;15.10;99.90;;;;;;4990785;28;20104;-89
2022/05/15 05:34:50;;;;;;;2.38;0.70;;;15.20;99.90;;;;;;4968633;28;20463;-88
2022/05/15 05:37:17;;;;;;;3.05;0.63;;;15.60;99.90;;;;;;4969616;28;20118;-89
2022/05/15 05:39:46;;;;;;;2.22;0.80;;;15.30;99.90;;;;;;4975990;28;20092;-88
2022/05/15 05:42:11;;;;;;;2.47;0.65;;;15.30;99.90;;;;;;4961286;28;20117;-88
2022/05/15 05:44:37;;;;;;;2.88;0.90;;;15.40;99.90;;;;;;4974186;28;20543;-89
2022/05/15 05:47:04;;;;;;;1.95;0.60;;;15.50;99.90;;;;;;4991330;28;20027;-89
2022/05/15 05:49:30;;;;;;;2.33;0.75;;;15.50;99.90;;;;;;4977014;28;20040;-88
2022/05/15 05:51:55;;;;;;;1.60;0.60;;;15.60;99.90;;;;;;4976862;28;20473;-88
2022/05/15 05:54:21;;;;;;;1.95;0.68;;;16.00;99.90;;;;;;4980756;28;20045;-88
2022/05/15 05:56:47;;;;;;;2.10;0.68;;;15.90;99.90;;;;;;4969765;28;20026;-88
2022/05/15 05:59:12;;;;;;;2.70;0.82;;;15.90;99.90;;;;;;4974461;28;20046;-88
2022/05/15 06:01:38;;;;;;;1.85;0.70;;;16.00;99.90;;;;;;4975776;28;20514;-89
2022/05/15 06:06:48;;;;;;;1.70;0.70;;;16.00;99.90;;;;;;4990084;28;20041;-90
2022/05/15 06:09:14;;;;;;;1.48;0.60;;;16.10;99.90;;;;;;4972875;28;20023;-89
2022/05/15 06:11:39;;;;;;;1.92;0.60;;;16.00;99.90;;;;;;4987945;28;20045;-88
2022/05/15 06:14:06;;;;;;;1.65;0.55;;;16.10;99.90;;;;;;4990568;28;20088;-89
2022/05/15 06:16:32;;;;;;;2.55;0.88;;;16.00;99.90;;;;;;4967409;28;20048;-88
2022/05/15 06:18:59;;;;;;;3.08;0.63;;;16.00;99.90;;;;;;4976590;28;20030;-88
2022/05/15 06:21:25;;;;;;;3.55;0.93;;;15.90;99.90;;;;;;4974668;28;20026;-89
2022/05/15 06:23:50;;;;;;;2.05;0.60;;;16.00;99.90;;;;;;4996477;28;20037;-88
2022/05/15 06:26:16;;;;;;;1.48;0.68;;;16.10;99.90;;;;;;4983810;28;20023;-90
2022/05/15 06:28:41;;;;;;;1.92;0.70;;;16.30;99.90;;;;;;4983327;28;20406;-89
2022/05/15 06:31:08;;;;;;;1.92;0.57;;;16.30;99.90;;;;;;4982623;28;20537;-88
2022/05/15 06:33:33;;;;;;;1.98;0.75;;;16.30;99.90;;;;;;4988895;28;20034;-87
2022/05/15 06:35:59;;;;;;;1.63;0.60;;;16.50;99.90;;;;;;4989102;28;20037;-87
2022/05/15 06:38:25;;;;;;;1.17;0.65;;;16.60;99.90;;;;;;4990319;28;20081;-86
2022/05/15 06:40:52;;;;;;;1.42;0.65;;;16.80;99.90;;;;;;4967836;28;20027;-87
2022/05/15 06:43:18;;;;;;;2.60;0.70;;;16.90;99.90;;;;;;4970142;28;20054;-88
2022/05/15 06:45:43;;;;;;;1.67;0.65;;;16.90;99.90;;;;;;4976199;28;20472;-87
2022/05/15 06:48:09;;;;;;;2.00;0.80;;;17.00;99.90;;;;;;4977743;28;20038;-88
2022/05/15 06:50:35;;;;;;;1.50;0.60;;;17.40;99.90;;;;;;4975260;28;20121;-88
2022/05/15 06:53:02;;;;;;;1.63;0.60;;;17.40;99.80;;;;;;4971715;28;20023;-88
2022/05/15 06:55:28;;;;;;;2.53;0.65;;;17.60;99.90;;;;;;4988238;28;20022;-88
2022/05/15 06:57:54;;;;;;;1.27;0.50;;;17.70;99.90;;;;;;4976241;28;20072;-88
2022/05/15 07:00:22;;;;;;;2.65;0.90;;;17.80;99.40;;;;;;4969489;28;20030;-87
2022/05/15 07:02:48;;;;;;;1.90;0.60;;;17.90;99.40;;;;;;4970343;28;20108;-88
2022/05/15 07:05:24;;;;;;;1.63;0.55;;;17.90;99.30;;;;;;4971834;28;20037;-88
2022/05/15 07:07:52;;;;;;;1.65;0.60;;;18.10;99.10;;;;;;4971977;28;20051;-88
2022/05/15 07:10:18;;;;;;;1.35;0.50;;;18.20;98.40;;;;;;4978344;28;20119;-88
2022/05/15 07:12:43;;;;;;;0.95;0.50;;;18.40;98.80;;;;;;4983948;28;20030;-87
2022/05/15 07:15:21;;;;;;;3.20;0.70;;;18.40;99.20;;;;;;5016495;23;20050;-88
2022/05/15 07:18:18;;;;;;;1.02;0.45;;;18.70;99.30;;;;;;4969178;28;20046;-88
2022/05/15 07:21:04;;;;;;;1.92;0.60;;;18.80;98.30;;;;;;4995455;28;20113;-87
2022/05/15 07:23:46;;;;;;;1.75;0.80;;;18.90;97.80;;;;;;4983542;28;20414;-88
2022/05/15 07:26:26;;;;;;;1.80;0.50;;;19.20;98.00;;;;;;4971126;28;20509;-88
2022/05/15 07:28:59;;;;;;;1.52;0.43;;;19.20;97.30;;;;;;4970666;28;20034;-88
2022/05/15 07:31:27;;;;;;;1.95;0.50;;;19.50;96.00;;;;;;4984454;28;20129;-88
2022/05/15 07:34:32;;;;;;;0.98;0.50;;;19.70;96.10;;;;;;4982608;28;20040;-88
2022/05/15 07:37:28;;;;;;;;;;;;;;;;;;;;;
2022/05/15 07:40:48;;;;;;;1.73;0.40;;;20.00;94.90;;;;;;4989596;28;20022;-87
2022/05/15 07:43:19;;;;;;;1.73;0.68;;;20.10;94.80;;;;;;4888490;28;21230;-88
2022/05/15 07:46:16;;;;;;;3.42;0.50;;;20.20;93.90;;;;;;4986107;28;20076;-88
2022/05/15 07:48:48;;;;;;;2.17;0.70;;;20.40;94.10;;;;;;5004073;28;20030;-88
2022/05/15 07:51:32;;;;;;;1.48;0.60;;;20.40;93.90;;;;;;4979567;28;20039;-87
2022/05/15 07:54:08;;;;;;;0.75;0.32;;;20.60;93.60;;;;;;4976771;28;20022;-87
2022/05/15 07:56:37;;;;;;;2.38;0.63;;;20.70;92.80;;;;;;4975792;28;20092;-88
2022/05/15 07:59:23;;;;;;;0.60;0.30;;;20.70;93.30;;;;;;4997564;28;20085;-88
2022/05/15 08:01:54;;;;;;;1.17;0.30;;;20.80;93.50;;;;;;4996937;28;20080;-88
2022/05/15 08:04:25;;;;;;;1.23;0.37;;;20.80;93.30;;;;;;4978138;28;20032;-88
2022/05/15 08:09:55;;;;;;;0.52;0.28;;;21.20;92.30;;;;;;4996509;28;20401;-88
2022/05/15 08:12:29;;;;;;;1.85;0.60;;;21.40;92.10;;;;;;4976846;28;20141;-87
2022/05/15 08:15:02;;;;;;;1.05;0.45;;;21.50;92.40;;;;;;4974134;28;20023;-88
2022/05/15 08:17:37;;;;;;;1.98;0.40;;;21.60;91.60;;;;;;4984884;28;20085;-88
2022/05/15 08:25:42;;;;;;;2.03;0.50;;;22.10;91.10;;;;;;4998611;28;20102;-88
2022/05/15 08:28:08;;;;;;;1.08;0.50;;;22.20;90.90;;;;;;4977808;28;20502;-88
2022/05/15 08:30:36;;;;;;;0.85;0.40;;;22.50;91.80;;;;;;5002572;28;20089;-88
2022/05/15 08:33:10;;;;;;;1.05;0.30;;;22.50;91.60;;;;;;4985834;28;20490;-88
2022/05/15 08:35:50;;;;;;;1.92;0.45;;;22.60;90.60;;;;;;4993845;28;20077;-88
2022/05/15 08:38:25;;;;;;;2.25;0.60;;;22.80;90.30;;;;;;4977539;28;20034;-88
2022/05/15 08:41:38;;;;;;;1.67;0.50;;;22.80;90.70;;;;;;4984339;28;20029;-88
2022/05/15 08:44:32;;;;;;;1.48;0.45;;;23.10;88.60;;;;;;5001175;28;20050;-88
2022/05/15 08:47:36;;;;;;;0.88;0.40;;;23.10;88.40;;;;;;4980666;28;20030;-88
2022/05/15 08:50:25;;;;;;;1.95;0.43;;;23.10;87.40;;;;;;4975525;28;20076;-88
2022/05/15 08:53:20;;;;;;;2.20;0.40;;;23.40;88.60;;;;;;4954489;28;20082;-87
2022/05/15 08:55:55;;;;;;;1.25;0.40;;;23.70;88.30;;;;;;4954655;28;20075;-88
2022/05/15 08:58:44;;;;;;;1.00;0.35;;;23.80;86.90;;;;;;4971930;28;20031;-88
2022/05/15 09:01:29;;;;;;;0.90;0.40;;;23.90;86.60;;;;;;4970518;28;20501;-87
2022/05/15 09:04:16;;;;;;;1.83;0.40;;;23.90;86.20;;;;;;4966796;28;20423;-88
2022/05/15 09:07:20;;;;;;;0.80;0.30;;;24.20;86.20;;;;;;4973981;28;20046;-88
2022/05/15 09:10:09;;;;;;;1.00;0.50;;;24.40;83.20;;;;;;4970208;28;20134;-88
2022/05/15 09:13:46;;;;;;;2.35;0.50;;;24.50;82.10;;;;;;4973360;28;20624;-87
2022/05/15 09:16:47;;;;;;;1.52;0.50;;;24.70;83.20;;;;;;4916292;28;20039;-89
2022/05/15 09:19:57;;;;;;;1.55;0.98;;;24.80;83.90;;;;;;4961077;28;20115;-88
2022/05/15 09:23:01;;;;;;;1.10;0.40;;;24.80;82.90;;;;;;4972786;28;20042;-88
2022/05/15 09:26:15;;;;;;;1.58;0.50;;;25.00;81.30;;;;;;4973636;28;20439;-89
2022/05/15 09:29:00;;;;;;;1.70;0.40;;;25.00;82.60;;;;;;4990775;28;20062;-88
2022/05/15 09:31:45;;;;;;;1.17;0.30;;;25.00;79.20;;;;;;4978137;28;20562;-88
2022/05/15 09:35:00;;;;;;;2.80;0.50;;;25.10;79.10;;;;;;4972542;28;20056;-89
2022/05/15 09:38:38;;;;;;;1.00;0.43;;;25.20;77.50;;;;;;4975631;28;20039;-89
2022/05/15 09:44:56;;;;;;;2.60;0.50;;;25.60;75.00;;;;;;4993457;28;20383;-88
2022/05/15 09:48:03;;;;;;;0.77;0.32;;;25.60;75.10;;;;;;4977064;28;20026;-89
2022/05/15 09:50:48;;;;;;;3.70;0.60;;;25.80;74.10;;;;;;4914926;28;20042;-88
2022/05/15 09:53:41;;;;;;;1.83;0.50;;;26.00;74.70;;;;;;4977362;28;20049;-88
2022/05/15 09:56:49;;;;;;;1.48;0.32;;;26.10;73.50;;;;;;4979508;28;20022;-89
2022/05/15 09:59:46;;;;;;;2.78;0.45;;;26.30;74.40;;;;;;4989926;28;20447;-89
2022/05/15 10:03:06;;;;;;;1.02;0.40;;;26.30;72.90;;;;;;4966930;28;20484;-89
2022/05/15 10:05:41;;;;;;;2.08;0.45;;;26.60;74.40;;;;;;4981508;28;20076;-89
2022/05/15 10:08:45;;;;;;;1.27;0.30;;;26.70;73.40;;;;;;4983686;28;20030;-89
2022/05/15 10:11:35;;;;;;;1.63;0.50;;;26.90;72.30;;;;;;4979279;28;20033;-89
2022/05/15 10:14:40;;;;;;;1.63;0.35;;;27.00;70.70;;;;;;4961224;28;20055;-89
2022/05/15 10:18:03;;;;;;;0.75;0.40;;;26.80;73.00;;;;;;4969460;28;20053;-90
2022/05/15 10:20:37;;;;;;;1.00;0.30;;;26.80;71.60;;;;;;4966057;28;20164;-89
2022/05/15 10:23:44;;;;;;;1.00;0.35;;;26.70;72.50;;;;;;4975319;28;20066;-89
2022/05/15 10:26:27;;;;;;;1.92;0.38;;;26.80;70.90;;;;;;4986117;28;20030;-89
2022/05/15 10:29:24;;;;;;;0.55;0.20;;;26.90;71.70;;;;;;4988779;28;20023;-90
2022/05/15 10:32:24;;;;;;;0.75;0.38;;;27.00;71.40;;;;;;4973182;28;20045;-89
2022/05/15 10:38:19;;;;;;;0.65;0.30;;;27.40;68.70;;;;;;4977135;28;20061;-89
2022/05/15 10:41:25;;;;;;;1.88;0.52;;;27.50;68.90;;;;;;4970444;28;20046;-89
2022/05/15 10:44:05;;;;;;;0.90;0.40;;;27.70;67.60;;;;;;4976836;28;20698;-89
2022/05/15 10:47:20;;;;;;;2.10;0.40;;;27.90;68.00;;;;;;4975896;28;20021;-89
2022/05/15 10:50:26;;;;;;;2.53;0.50;;;27.80;67.60;;;;;;4967987;28;20100;-90
2022/05/15 11:00:11;;;;;;;1.10;0.50;;;27.40;65.10;;;;;;4930041;29;20024;-89
2022/05/15 11:03:16;;;;;;;2.05;0.68;;;27.90;67.40;;;;;;4909607;29;20120;-90
2022/05/15 11:06:24;;;;;;;0.90;0.40;;;28.10;65.60;;;;;;4965776;28;20045;-88
2022/05/15 11:09:07;;;;;;;0.60;0.28;;;28.40;65.30;;;;;;4932310;28;20077;-88
2022/05/15 11:12:11;;;;;;;1.70;0.60;;;28.30;62.90;;;;;;4962035;28;20175;-88
2022/05/15 11:15:00;;;;;;;1.48;0.45;;;28.30;62.50;;;;;;4965331;28;20046;-88
2022/05/15 11:17:50;;;;;;;0.90;0.25;;;28.70;63.10;;;;;;4972442;28;20038;-88
2022/05/15 11:20:59;;;;;;;1.40;0.40;;;29.00;63.70;;;;;;4962364;28;20043;-88
2022/05/15 11:23:45;;;;;;;3.03;0.40;;;29.10;63.40;;;;;;4960265;28;20495;-88
2022/05/15 11:27:26;;;;;;;1.85;0.35;;;29.00;61.60;;;;;;4962191;28;20527;-88
2022/05/15 11:30:04;;;;;;;0.88;0.30;;;29.30;61.60;;;;;;4960459;28;20040;-88
2022/05/15 11:32:54;;;;;;;1.08;0.40;;;29.50;61.20;;;;;;4955777;28;20047;-85
2022/05/15 11:35:23;;;;;;;0.63;0.20;;;29.60;59.70;;;;;;4979193;28;20033;-86
2022/05/15 11:38:33;;;;;;;1.17;0.32;;;29.70;59.70;;;;;;4963475;28;20119;-86
2022/05/15 11:41:24;;;;;;;0.88;0.40;;;29.90;59.10;;;;;;4980663;28;20026;-85
2022/05/15 11:44:07;;;;;;;0.70;0.40;;;29.60;60.00;;;;;;4989355;28;20066;-86
2022/05/15 11:47:29;;;;;;;2.22;0.30;;;29.50;59.70;;;;;;4994259;28;20085;-86
2022/05/15 11:54:11;;;;;;;1.67;0.30;;;29.90;60.40;;;;;;5006512;28;20293;-85
2022/05/15 11:57:00;;;;;;;0.90;0.30;;;29.90;60.20;;;;;;4913813;29;20140;-86
2022/05/15 12:02:53;;;;;;;1.45;0.40;;;29.80;58.30;;;;;;4915759;29;20023;-86
2022/05/15 12:05:58;;;;;;;3.17;0.43;;;30.10;58.80;;;;;;4939353;28;20090;-89
2022/05/15 12:09:12;;;;;;;0.80;0.40;;;30.30;58.30;;;;;;4985785;28;20030;-89
2022/05/15 12:12:01;;;;;;;0.30;0.20;;;30.60;59.60;;;;;;5002051;28;20061;-89
2022/05/15 12:15:22;;;;;;;1.08;0.30;;;30.80;59.10;;;;;;4984380;28;20065;-89
2022/05/15 12:17:57;;;;;;;0.77;0.35;;;31.20;57.60;;;;;;4972783;28;20159;-89
2022/05/15 12:20:42;;;;;;;2.92;0.50;;;30.80;58.30;;;;;;4972297;28;20074;-89
2022/05/15 12:26:50;;;;;;;;;;;;;;;;;;;;;
2022/05/15 12:29:53;;;;;;;1.92;0.40;;;31.20;55.70;;;;;;4980623;28;20463;-88
2022/05/15 12:32:44;;;;;;;2.28;0.80;;;31.00;57.00;;;;;;4979594;28;20054;-89
2022/05/15 12:35:20;;;;;;;2.28;0.52;;;31.30;56.50;;;;;;4975949;28;20032;-88
2022/05/15 12:38:12;;;;;;;1.50;0.35;;;31.60;57.90;;;;;;4972440;28;20038;-89
2022/05/15 12:41:38;;;;;;;1.40;0.30;;;31.50;56.20;;;;;;4966868;28;20750;-89
2022/05/15 12:44:12;;;;;;;1.75;0.50;;;31.60;57.00;;;;;;4921049;28;20411;-89
2022/05/15 12:47:05;;;;;;;1.27;0.45;;;31.70;55.80;;;;;;4982578;28;20026;-88
2022/05/15 12:49:43;;;;;;;2.88;1.13;;;31.90;57.50;;;;;;4988711;28;20037;-89
2022/05/15 12:52:34;;;;;;;1.35;0.45;;;31.80;56.80;;;;;;4967609;28;20120;-89
2022/05/15 12:55:43;;;;;;;0.80;0.40;;;32.00;57.30;;;;;;4988868;28;20070;-89
2022/05/15 12:58:09;;;;;;;0.60;0.25;;;31.70;56.40;;;;;;4966246;28;20105;-89
2022/05/15 13:00:58;;;;;;;1.15;0.47;;;31.80;56.50;;;;;;4967746;28;20129;-88
2022/05/15 13:04:17;;;;;;;1.15;0.30;;;31.70;56.60;;;;;;4984942;28;20086;-89
2022/05/15 13:07:26;;;;;;;0.95;0.40;;;31.90;56.60;;;;;;4851849;29;20041;-89
2022/05/15 13:11:00;;;;;;;2.22;0.35;;;31.80;57.10;;;;;;4971028;28;20043;-88
2022/05/15 13:14:29;;;;;;;;;;;;;;;;;;;;;
2022/05/15 13:16:56;;;;;;;0.80;0.30;;;32.30;55.40;;;;;;4998469;23;20072;-88
2022/05/15 13:19:29;;;;;;;2.58;0.40;;;32.00;55.40;;;;;;4969201;28;20112;-88
2022/05/15 13:21:56;;;;;;;1.83;0.30;;;32.10;54.80;;;;;;4990029;28;20085;-89
2022/05/15 13:24:24;;;;;;;1.10;0.43;;;31.80;54.10;;;;;;4988990;28;20034;-88
2022/05/15 13:26:51;;;;;;;2.95;0.40;;;31.70;53.40;;;;;;4969657;28;20040;-89
2022/05/15 13:29:20;;;;;;;1.95;0.38;;;31.90;55.60;;;;;;4982521;28;20587;-88
2022/05/15 13:31:49;;;;;;;2.03;0.30;;;32.10;54.50;;;;;;4973530;28;20037;-88
2022/05/15 13:34:17;;;;;;;1.17;0.40;;;32.10;58.10;;;;;;4971222;28;20149;-88
2022/05/15 13:36:56;;;;;;;0.98;0.40;;;32.20;55.50;;;;;;4970754;28;20035;-88
2022/05/15 13:45:19;;;;;;;1.63;0.40;;;31.50;54.90;;;;;;4980152;28;20366;-88
2022/05/15 13:48:05;;;;;;;2.60;0.45;;;31.30;54.00;;;;;;4965207;28;20093;-89
2022/05/15 13:51:00;;;;;;;0.73;0.35;;;31.90;56.10;;;;;;4989294;28;20019;-88
2022/05/15 13:53:35;;;;;;;0.70;0.25;;;32.30;53.70;;;;;;4987934;28;20019;-89
2022/05/15 13:56:16;;;;;;;1.48;0.30;;;32.20;54.30;;;;;;4975510;28;20031;-88
2022/05/15 13:58:52;;;;;;;2.45;0.50;;;32.50;53.80;;;;;;4971940;28;20031;-88
2022/05/15 14:01:25;;;;;;;1.23;0.40;;;32.40;53.70;;;;;;4986543;28;20026;-88
2022/05/15 14:03:53;;;;;;;1.23;0.40;;;32.20;53.80;;;;;;4969755;28;20019;-88
2022/05/15 14:06:23;;;;;;;0.93;0.30;;;32.20;53.70;;;;;;4968885;28;20402;-88
2022/05/15 14:09:00;;;;;;;0.80;0.30;;;32.60;54.30;;;;;;4973292;28;20142;-88
2022/05/15 14:11:27;;;;;;;0.73;0.30;;;32.80;55.30;;;;;;4981614;28;20031;-88
2022/05/15 14:13:54;;;;;;;0.90;0.30;;;32.40;52.60;;;;;;4987879;28;20838;-88
2022/05/15 14:16:25;;;;;;;0.85;0.38;;;32.60;53.90;;;;;;4972078;28;20041;-89
2022/05/15 14:18:52;;;;;;;1.10;0.55;;;33.00;53.40;;;;;;4957248;28;20023;-88
2022/05/15 14:21:26;;;;;;;0.50;0.20;;;32.90;52.80;;;;;;4970887;28;20045;-89
2022/05/15 14:23:53;;;;;;;0.30;0.22;;;33.00;53.00;;;;;;4990488;28;20058;-88
2022/05/15 14:26:20;;;;;;;1.58;0.40;;;33.20;52.70;;;;;;4987858;28;20025;-88
2022/05/15 14:28:46;;;;;;;0.70;0.30;;;33.30;51.90;;;;;;4986963;28;20069;-89